Time;durP1;ratioP1;P1;durP2;ratioP2;P2;SDS_P1;SDS_P2;PMS_P1;PMS_P2;Temp;Humidity;BMP_temperature;BMP_pressure;BME280_temperature;BME280_humidity;BME280_pressure;Samples;Min_cycle;Max_cycle;Signal;HPM_P1;HPM_P2
2021/03/25 00:00:55;;;;;;;4.13;3.83;;;;;;;;;;5067647;28;21001;-67
2021/03/25 00:03:21;;;;;;;6.70;3.30;;;;;;;;;;5070148;28;20461;-67
2021/03/25 00:05:48;;;;;;;2.33;1.50;;;;;;;;;;5072737;28;21022;-67
2021/03/25 00:08:16;;;;;;;5.73;3.70;;;;;;;;;;5073092;28;20416;-67
2021/03/25 00:10:42;;;;;;;3.90;3.17;;;;;;;;;;5050886;28;20462;-67
2021/03/25 00:13:08;;;;;;;4.87;3.67;;;;;;;;;;5051720;28;20478;-67
2021/03/25 00:15:34;;;;;;;7.60;3.27;;;;;;;;;;5057285;28;20410;-67
2021/03/25 00:18:00;;;;;;;6.20;3.37;;;;;;;;;;5072442;28;20482;-65
2021/03/25 00:20:26;;;;;;;5.13;4.10;;;;;;;;;;5072745;28;20431;-67
2021/03/25 00:22:53;;;;;;;5.63;3.00;;;;;;;;;;5071199;28;20458;-67
2021/03/25 00:25:25;;;;;;;4.60;2.80;;;;;;;;;;5073624;28;20429;-67
2021/03/25 00:27:51;;;;;;;4.03;3.63;;;;;;;;;;5074319;28;20490;-67
2021/03/25 00:30:19;;;;;;;3.77;2.93;;;;;;;;;;5072566;28;20448;-67
2021/03/25 00:32:45;;;;;;;2.10;1.83;;;;;;;;;;5066618;28;20458;-68
2021/03/25 00:35:12;;;;;;;5.13;2.00;;;;;;;;;;5053711;28;20495;-67
2021/03/25 00:37:38;;;;;;;2.37;1.43;;;;;;;;;;5052420;28;20399;-67
2021/03/25 00:40:06;;;;;;;6.10;2.80;;;;;;;;;;5065154;28;20414;-67
2021/03/25 00:42:32;;;;;;;4.70;2.97;;;;;;;;;;5067934;28;20435;-67
2021/03/25 00:44:58;;;;;;;2.97;2.27;;;;;;;;;;5063544;28;20496;-66
2021/03/25 00:47:24;;;;;;;5.07;3.83;;;;;;;;;;5070434;28;20413;-67
2021/03/25 00:49:49;;;;;;;2.43;2.23;;;;;;;;;;5071904;28;20397;-68
2021/03/25 00:52:15;;;;;;;2.37;1.80;;;;;;;;;;5060507;28;20549;-68
2021/03/25 00:54:41;;;;;;;2.90;1.50;;;;;;;;;;5071357;28;20512;-66
2021/03/25 00:57:08;;;;;;;4.10;2.53;;;;;;;;;;5071832;28;20530;-68
2021/03/25 00:59:33;;;;;;;5.27;3.40;;;;;;;;;;5071962;28;20402;-67
2021/03/25 01:02:00;;;;;;;5.90;3.27;;;;;;;;;;5067756;28;20441;-68
2021/03/25 01:04:26;;;;;;;12.10;3.60;;;;;;;;;;5064610;28;20812;-68
2021/03/25 01:06:52;;;;;;;7.43;3.80;;;;;;;;;;5071349;28;20428;-67
2021/03/25 01:09:18;;;;;;;6.50;2.50;;;;;;;;;;5072579;28;20800;-68
2021/03/25 01:11:44;;;;;;;3.07;1.53;;;;;;;;;;5071374;28;20486;-69
2021/03/25 01:14:10;;;;;;;3.47;2.20;;;;;;;;;;5053815;28;20417;-68
2021/03/25 01:16:40;;;;;;;5.60;2.37;;;;;;;;;;5068868;28;20412;-68
2021/03/25 01:19:09;;;;;;;5.13;2.10;;;;;;;;;;5035583;28;20466;-69
2021/03/25 01:21:35;;;;;;;3.53;3.23;;;;;;;;;;5057062;28;20953;-66
2021/03/25 01:24:01;;;;;;;5.63;2.80;;;;;;;;;;5056271;28;20369;-67
2021/03/25 01:26:27;;;;;;;6.60;3.10;;;;;;;;;;5056931;28;20410;-66
2021/03/25 01:28:53;;;;;;;2.60;2.37;;;;;;;;;;5056251;28;20409;-67
2021/03/25 01:31:19;;;;;;;9.90;3.43;;;;;;;;;;5056447;28;20426;-68
2021/03/25 01:33:45;;;;;;;10.13;3.70;;;;;;;;;;5058128;28;20453;-68
2021/03/25 01:36:11;;;;;;;7.20;3.87;;;;;;;;;;5077110;28;20481;-67
2021/03/25 01:38:37;;;;;;;5.83;4.37;;;;;;;;;;5075988;28;20452;-68
2021/03/25 01:41:04;;;;;;;3.83;3.47;;;;;;;;;;5076099;28;20408;-68
2021/03/25 01:43:30;;;;;;;6.93;2.83;;;;;;;;;;5076331;28;20405;-68
2021/03/25 01:46:15;;;;;;;8.73;3.07;;;;;;;;;;5076347;28;20415;-68
2021/03/25 01:48:41;;;;;;;3.97;3.23;;;;;;;;;;5064906;28;20475;-69
2021/03/25 01:51:09;;;;;;;2.10;1.90;;;;;;;;;;5076390;28;20401;-67
2021/03/25 01:53:44;;;;;;;7.77;2.87;;;;;;;;;;5075626;28;20419;-67
2021/03/25 01:56:25;;;;;;;6.10;4.50;;;;;;;;;;5076713;28;20385;-67
2021/03/25 01:58:51;;;;;;;5.07;3.13;;;;;;;;;;5057042;28;20405;-68
2021/03/25 02:01:40;;;;;;;13.00;4.60;;;;;;;;;;5064983;28;20504;-67
2021/03/25 02:04:18;;;;;;;7.23;4.30;;;;;;;;;;5076063;28;20420;-68
2021/03/25 02:07:03;;;;;;;8.20;3.33;;;;;;;;;;5056966;28;20421;-67
2021/03/25 02:09:49;;;;;;;5.10;3.80;;;;;;;;;;5056572;28;20765;-68
2021/03/25 02:12:24;;;;;;;4.17;3.43;;;;;;;;;;5045322;28;20534;-69
2021/03/25 02:14:53;;;;;;;3.87;3.47;;;;;;;;;;5055465;28;20402;-68
2021/03/25 02:17:31;;;;;;;5.17;2.43;;;;;;;;;;5066303;28;20908;-67
2021/03/25 02:20:12;;;;;;;9.00;5.10;;;;;;;;;;5083532;28;21158;-68
2021/03/25 02:22:57;;;;;;;14.30;5.93;;;;;;;;;;5086100;28;20537;-69
2021/03/25 02:25:34;;;;;;;10.40;4.40;;;;;;;;;;5074439;28;20432;-67
2021/03/25 02:27:59;;;;;;;8.43;4.03;;;;;;;;;;5059486;28;20806;-67
2021/03/25 02:30:44;;;;;;;3.33;2.73;;;;;;;;;;5054679;28;20415;-68
2021/03/25 02:33:12;;;;;;;4.10;3.60;;;;;;;;;;5036970;28;21058;-67
2021/03/25 02:35:40;;;;;;;4.50;3.03;;;;;;;;;;5055520;28;20413;-67
2021/03/25 02:38:12;;;;;;;5.40;4.80;;;;;;;;;;5055976;28;20417;-65
2021/03/25 02:40:42;;;;;;;7.23;3.53;;;;;;;;;;5055195;28;20422;-67
2021/03/25 02:43:11;;;;;;;7.73;5.60;;;;;;;;;;5055749;28;20419;-68
2021/03/25 02:45:43;;;;;;;5.10;2.87;;;;;;;;;;5071728;28;21005;-67
2021/03/25 02:48:11;;;;;;;5.57;2.40;;;;;;;;;;5074563;28;20392;-65
2021/03/25 02:50:40;;;;;;;12.00;3.43;;;;;;;;;;5074157;28;20409;-64
2021/03/25 02:53:10;;;;;;;5.80;3.13;;;;;;;;;;5057133;28;20552;-67
2021/03/25 02:55:37;;;;;;;4.70;3.80;;;;;;;;;;5062779;28;20425;-68
2021/03/25 02:58:03;;;;;;;6.53;3.80;;;;;;;;;;5068855;28;20929;-67
2021/03/25 03:00:32;;;;;;;7.67;2.90;;;;;;;;;;5059987;28;20422;-68
2021/03/25 03:03:02;;;;;;;2.43;1.70;;;;;;;;;;5075199;28;20399;-67
2021/03/25 03:05:29;;;;;;;9.80;4.10;;;;;;;;;;5075950;28;20377;-67
2021/03/25 03:08:33;;;;;;;4.23;3.80;;;;;;;;;;5045141;28;20881;-67
2021/03/25 03:10:59;;;;;;;5.83;2.53;;;;;;;;;;5012009;28;20506;-67
2021/03/25 03:13:27;;;;;;;5.33;3.00;;;;;;;;;;5008081;28;20471;-66
2021/03/25 03:16:13;;;;;;;11.03;4.70;;;;;;;;;;5006774;28;21091;-67
2021/03/25 03:18:44;;;;;;;3.87;3.10;;;;;;;;;;5004957;28;20412;-67
2021/03/25 03:21:16;;;;;;;10.47;3.87;;;;;;;;;;5000666;28;21897;-65
2021/03/25 03:23:42;;;;;;;4.83;4.13;;;;;;;;;;5001714;28;20488;-67
2021/03/25 03:26:11;;;;;;;6.47;4.10;;;;;;;;;;5009148;28;20445;-67
2021/03/25 03:28:45;;;;;;;4.57;3.00;;;;;;;;;;5005448;28;20402;-67
2021/03/25 03:31:14;;;;;;;12.00;3.60;;;;;;;;;;5006534;28;20456;-67
2021/03/25 03:33:43;;;;;;;7.57;2.57;;;;;;;;;;5004658;28;20464;-67
2021/03/25 03:36:12;;;;;;;4.80;1.70;;;;;;;;;;5002734;28;20406;-67
2021/03/25 03:38:54;;;;;;;8.77;6.00;;;;;;;;;;5001434;28;20486;-67
2021/03/25 03:41:34;;;;;;;15.73;2.47;;;;;;;;;;5028297;28;20416;-67
2021/03/25 03:44:03;;;;;;;15.73;3.93;;;;;;;;;;5073563;28;20448;-67
2021/03/25 03:46:29;;;;;;;22.33;3.87;;;;;;;;;;5074989;28;21020;-68
2021/03/25 03:49:07;;;;;;;4.43;4.00;;;;;;;;;;5056229;28;20404;-67
2021/03/25 03:51:37;;;;;;;10.97;3.87;;;;;;;;;;5054470;28;20422;-68
2021/03/25 03:54:04;;;;;;;11.17;3.57;;;;;;;;;;5057194;28;20468;-66
2021/03/25 03:56:39;;;;;;;12.73;5.93;;;;;;;;;;5057113;28;20893;-66
2021/03/25 03:59:24;;;;;;;4.13;3.77;;;;;;;;;;5054193;28;20774;-67
2021/03/25 04:01:52;;;;;;;4.50;3.73;;;;;;;;;;5072969;28;20435;-67
2021/03/25 04:04:23;;;;;;;7.90;4.57;;;;;;;;;;5073898;28;20411;-68
2021/03/25 04:06:58;;;;;;;5.10;3.00;;;;;;;;;;5073471;28;20385;-67
2021/03/25 04:09:33;;;;;;;7.37;4.30;;;;;;;;;;5055216;28;20434;-68
2021/03/25 04:12:05;;;;;;;8.83;3.60;;;;;;;;;;5043069;28;20821;-67
2021/03/25 04:14:33;;;;;;;8.47;5.60;;;;;;;;;;5068823;28;20968;-67
2021/03/25 04:17:01;;;;;;;4.27;2.20;;;;;;;;;;5072474;28;20850;-68
2021/03/25 04:19:48;;;;;;;7.13;3.73;;;;;;;;;;5077046;28;20415;-66
2021/03/25 04:22:28;;;;;;;8.20;2.80;;;;;;;;;;5100714;22;20468;-77
2021/03/25 04:24:56;;;;;;;5.73;4.43;;;;;;;;;;5080953;28;20447;-76
2021/03/25 04:27:26;;;;;;;11.43;3.80;;;;;;;;;;5095570;28;20839;-77
2021/03/25 04:30:01;;;;;;;7.33;3.53;;;;;;;;;;5091325;28;20447;-77
2021/03/25 04:32:27;;;;;;;9.43;4.37;;;;;;;;;;5065672;28;20476;-77
2021/03/25 04:34:53;;;;;;;17.47;4.70;;;;;;;;;;5067451;28;20417;-79
2021/03/25 04:37:20;;;;;;;5.67;2.47;;;;;;;;;;5064711;28;20414;-78
2021/03/25 04:39:48;;;;;;;2.80;2.60;;;;;;;;;;5064269;28;20661;-77
2021/03/25 04:42:15;;;;;;;5.10;3.30;;;;;;;;;;5084104;28;20434;-77
2021/03/25 04:44:48;;;;;;;4.70;2.70;;;;;;;;;;5062230;28;20432;-77
2021/03/25 04:47:18;;;;;;;4.30;3.50;;;;;;;;;;5091612;28;20439;-78
2021/03/25 04:49:46;;;;;;;4.20;2.60;;;;;;;;;;5058051;28;20378;-77
2021/03/25 04:52:32;;;;;;;13.47;4.87;;;;;;;;;;5075626;28;20460;-77
2021/03/25 04:55:06;;;;;;;3.13;2.20;;;;;;;;;;5079037;28;20635;-77
2021/03/25 04:57:37;;;;;;;4.50;3.00;;;;;;;;;;5073949;28;20416;-77
2021/03/25 05:00:11;;;;;;;5.13;2.90;;;;;;;;;;5086314;28;20417;-79
2021/03/25 05:02:38;;;;;;;6.50;3.47;;;;;;;;;;5099779;28;20412;-77
2021/03/25 05:05:07;;;;;;;8.20;3.30;;;;;;;;;;5077656;28;20438;-76
2021/03/25 05:07:35;;;;;;;12.87;4.60;;;;;;;;;;5085569;28;20436;-76
2021/03/25 05:10:03;;;;;;;5.70;2.87;;;;;;;;;;5094636;28;20410;-77
2021/03/25 05:12:30;;;;;;;9.20;3.80;;;;;;;;;;5097605;28;20494;-77
2021/03/25 05:15:16;;;;;;;11.50;3.80;;;;;;;;;;5077660;28;20589;-77
2021/03/25 05:17:42;;;;;;;3.53;2.10;;;;;;;;;;5073434;28;20401;-77
2021/03/25 05:20:14;;;;;;;5.30;3.40;;;;;;;;;;5075644;28;20469;-77
2021/03/25 05:22:45;;;;;;;13.10;4.20;;;;;;;;;;5081370;28;20455;-77
2021/03/25 05:25:11;;;;;;;3.10;2.13;;;;;;;;;;5094176;28;20412;-77
2021/03/25 05:27:43;;;;;;;5.00;3.00;;;;;;;;;;5075146;28;20485;-78
2021/03/25 05:30:16;;;;;;;8.80;6.03;;;;;;;;;;5073233;28;20489;-78
2021/03/25 05:32:45;;;;;;;2.67;2.07;;;;;;;;;;5072728;28;21114;-77
2021/03/25 05:35:14;;;;;;;6.20;5.43;;;;;;;;;;5073405;28;20437;-77
2021/03/25 05:37:42;;;;;;;3.50;2.70;;;;;;;;;;5087035;28;20404;-77
2021/03/25 05:40:12;;;;;;;4.50;2.10;;;;;;;;;;5088117;28;20421;-77
2021/03/25 05:42:54;;;;;;;6.43;2.13;;;;;;;;;;5091617;28;20403;-77
2021/03/25 05:45:39;;;;;;;2.83;2.50;;;;;;;;;;5092277;28;20545;-77
2021/03/25 05:48:11;;;;;;;2.23;1.97;;;;;;;;;;5078490;28;20385;-78
2021/03/25 05:50:47;;;;;;;5.47;2.07;;;;;;;;;;5088150;28;20413;-77
2021/03/25 05:53:16;;;;;;;1.93;1.23;;;;;;;;;;5070784;28;20512;-77
2021/03/25 05:55:47;;;;;;;2.60;2.40;;;;;;;;;;5075480;28;20415;-79
2021/03/25 05:58:20;;;;;;;10.23;3.17;;;;;;;;;;5093972;28;20407;-78
2021/03/25 06:01:08;;;;;;;5.53;3.27;;;;;;;;;;5091941;28;20437;-79
2021/03/25 06:03:35;;;;;;;7.23;3.37;;;;;;;;;;5091193;28;20405;-78
2021/03/25 06:06:01;;;;;;;3.17;1.77;;;;;;;;;;5081688;28;20409;-80
2021/03/25 06:08:27;;;;;;;2.73;2.53;;;;;;;;;;5083539;28;20428;-78
2021/03/25 06:10:53;;;;;;;4.23;3.87;;;;;;;;;;5098222;28;20414;-79
2021/03/25 06:13:19;;;;;;;4.43;4.07;;;;;;;;;;5079141;28;20464;-79
2021/03/25 06:16:11;;;;;;;2.23;1.83;;;;;;;;;;5079302;28;20429;-78
2021/03/25 06:18:47;;;;;;;6.27;3.30;;;;;;;;;;5096205;28;20421;-78
2021/03/25 06:21:19;;;;;;;3.83;3.57;;;;;;;;;;5094382;28;20387;-78
2021/03/25 06:23:48;;;;;;;5.13;3.30;;;;;;;;;;5095649;28;20445;-78
2021/03/25 06:26:27;;;;;;;4.53;3.70;;;;;;;;;;5095688;28;20615;-79
2021/03/25 06:29:06;;;;;;;6.23;4.53;;;;;;;;;;5074515;28;20387;-78
2021/03/25 06:31:41;;;;;;;7.50;4.30;;;;;;;;;;5090164;28;20412;-79
2021/03/25 06:34:27;;;;;;;8.27;3.23;;;;;;;;;;5094038;28;20496;-78
2021/03/25 06:36:56;;;;;;;25.97;3.40;;;;;;;;;;5093818;28;20380;-78
2021/03/25 06:39:25;;;;;;;2.40;1.83;;;;;;;;;;5080544;28;20422;-77
2021/03/25 06:42:27;;;;;;;7.00;4.47;;;;;;;;;;5066390;28;20509;-77
2021/03/25 06:45:04;;;;;;;9.63;2.37;;;;;;;;;;4980198;28;20420;-77
2021/03/25 06:47:39;;;;;;;12.10;4.37;;;;;;;;;;5035140;28;20414;-77
2021/03/25 06:50:06;;;;;;;2.80;1.73;;;;;;;;;;5068290;28;20448;-77
2021/03/25 06:52:40;;;;;;;2.70;2.10;;;;;;;;;;5074520;28;20453;-78
2021/03/25 06:55:20;;;;;;;6.93;3.77;;;;;;;;;;5076924;28;20477;-76
2021/03/25 06:57:55;;;;;;;4.80;1.93;;;;;;;;;;5076525;28;20422;-78
2021/03/25 07:00:23;;;;;;;6.10;3.60;;;;;;;;;;5066252;28;20410;-77
2021/03/25 07:02:49;;;;;;;5.90;3.63;;;;;;;;;;5068778;28;20433;-77
2021/03/25 07:05:24;;;;;;;7.70;3.90;;;;;;;;;;5084657;28;20415;-77
2021/03/25 07:07:54;;;;;;;3.40;3.10;;;;;;;;;;5053239;28;20417;-77
2021/03/25 07:10:20;;;;;;;4.10;3.23;;;;;;;;;;5071671;28;20414;-78
2021/03/25 07:12:48;;;;;;;6.53;3.03;;;;;;;;;;5076415;28;20516;-77
2021/03/25 07:15:25;;;;;;;8.53;2.67;;;;;;;;;;5090522;28;20422;-78
2021/03/25 07:17:54;;;;;;;3.10;2.80;;;;;;;;;;5076977;28;20423;-78
2021/03/25 07:20:26;;;;;;;8.23;3.67;;;;;;;;;;5061462;28;20425;-77
2021/03/25 07:23:00;;;;;;;4.10;3.40;;;;;;;;;;5089221;28;20531;-77
2021/03/25 07:25:28;;;;;;;3.27;2.70;;;;;;;;;;5079610;28;20406;-79
2021/03/25 07:27:54;;;;;;;19.57;3.70;;;;;;;;;;5071610;28;20418;-78
2021/03/25 07:30:21;;;;;;;5.93;2.50;;;;;;;;;;5060789;28;20448;-77
2021/03/25 07:32:55;;;;;;;5.30;3.23;;;;;;;;;;5088687;28;20450;-77
2021/03/25 07:35:21;;;;;;;2.53;1.83;;;;;;;;;;5079183;28;20402;-77
2021/03/25 07:37:47;;;;;;;5.53;2.07;;;;;;;;;;5063900;28;20412;-75
2021/03/25 07:40:27;;;;;;;4.73;3.00;;;;;;;;;;5063664;28;20433;-77
2021/03/25 07:42:53;;;;;;;2.60;2.00;;;;;;;;;;5070028;28;20440;-79
2021/03/25 07:45:38;;;;;;;9.60;2.93;;;;;;;;;;5081920;28;20397;-77
2021/03/25 07:48:18;;;;;;;4.70;3.27;;;;;;;;;;5056045;28;20387;-78
2021/03/25 07:50:44;;;;;;;10.37;2.87;;;;;;;;;;5055326;28;20425;-77
2021/03/25 07:53:20;;;;;;;8.57;3.50;;;;;;;;;;5050207;28;20869;-75
2021/03/25 07:55:46;;;;;;;8.23;3.97;;;;;;;;;;5071104;28;20405;-78
2021/03/25 07:58:32;;;;;;;4.30;2.30;;;;;;;;;;5090771;22;20619;-74
2021/03/25 08:01:05;;;;;;;3.23;2.13;;;;;;;;;;5042439;28;20463;-73
2021/03/25 08:03:40;;;;;;;10.10;3.80;;;;;;;;;;5052981;28;20428;-74
2021/03/25 08:06:15;;;;;;;10.40;3.53;;;;;;;;;;5070947;28;20934;-74
2021/03/25 08:08:41;;;;;;;5.93;4.30;;;;;;;;;;5033489;28;20435;-74
2021/03/25 08:11:15;;;;;;;5.50;4.40;;;;;;;;;;5051282;28;20760;-75
2021/03/25 08:13:50;;;;;;;13.13;4.43;;;;;;;;;;5031752;28;20451;-74
2021/03/25 08:16:17;;;;;;;8.77;4.33;;;;;;;;;;5040550;28;20489;-74
2021/03/25 08:18:43;;;;;;;11.17;3.20;;;;;;;;;;5031572;28;20390;-74
2021/03/25 08:21:11;;;;;;;7.27;3.93;;;;;;;;;;5013242;28;20400;-73
2021/03/25 08:23:49;;;;;;;11.10;2.40;;;;;;;;;;5018563;28;20414;-72
2021/03/25 08:26:14;;;;;;;6.60;3.33;;;;;;;;;;5023186;28;20537;-72
2021/03/25 08:28:55;;;;;;;18.53;5.17;;;;;;;;;;5036669;28;20394;-74
2021/03/25 08:31:33;;;;;;;7.00;3.77;;;;;;;;;;5015987;28;20406;-73
2021/03/25 08:34:20;;;;;;;3.20;2.90;;;;;;;;;;5049252;28;20785;-74
2021/03/25 08:36:49;;;;;;;3.30;3.00;;;;;;;;;;5034685;28;20456;-73
2021/03/25 08:39:21;;;;;;;9.60;3.40;;;;;;;;;;5029663;28;20469;-74
2021/03/25 08:41:58;;;;;;;15.07;4.30;;;;;;;;;;5030565;28;20844;-73
2021/03/25 08:44:31;;;;;;;10.23;3.63;;;;;;;;;;5012977;28;20411;-73
2021/03/25 08:47:09;;;;;;;7.33;5.47;;;;;;;;;;5013266;28;20401;-74
2021/03/25 08:49:39;;;;;;;8.33;4.80;;;;;;;;;;5040122;28;20407;-73
2021/03/25 08:52:07;;;;;;;8.97;4.53;;;;;;;;;;5036154;28;20431;-74
2021/03/25 08:54:36;;;;;;;16.10;9.50;;;;;;;;;;5016171;28;20449;-74
2021/03/25 08:57:05;;;;;;;4.10;1.43;;;;;;;;;;5014575;28;20433;-74
2021/03/25 08:59:40;;;;;;;3.73;2.47;;;;;;;;;;5014896;28;20474;-74
2021/03/25 09:02:21;;;;;;;7.57;3.87;;;;;;;;;;5028091;28;20443;-74
2021/03/25 09:04:51;;;;;;;5.10;3.50;;;;;;;;;;5051760;28;20410;-73
2021/03/25 09:07:18;;;;;;;7.27;5.70;;;;;;;;;;5032275;28;20507;-72
2021/03/25 09:09:46;;;;;;;14.63;4.47;;;;;;;;;;5050044;28;20393;-74
2021/03/25 09:12:27;;;;;;;3.83;3.50;;;;;;;;;;5024251;28;20429;-74
2021/03/25 09:14:54;;;;;;;7.47;4.87;;;;;;;;;;5046301;28;21038;-74
2021/03/25 09:17:22;;;;;;;19.63;5.20;;;;;;;;;;5041999;28;20386;-75
2021/03/25 09:19:52;;;;;;;16.50;4.50;;;;;;;;;;5047865;28;20405;-74
2021/03/25 09:22:37;;;;;;;5.37;4.87;;;;;;;;;;5021613;28;20458;-73
2021/03/25 09:25:22;;;;;;;11.30;5.70;;;;;;;;;;5022416;28;20429;-73
2021/03/25 09:27:56;;;;;;;14.80;5.87;;;;;;;;;;5043884;28;20859;-74
2021/03/25 09:30:42;;;;;;;10.70;5.93;;;;;;;;;;5021916;28;20417;-73
2021/03/25 09:33:27;;;;;;;7.63;6.70;;;;;;;;;;5043669;28;20539;-75
2021/03/25 09:35:53;;;;;;;7.37;5.17;;;;;;;;;;5041192;28;20414;-73
2021/03/25 09:38:33;;;;;;;6.80;4.60;;;;;;;;;;5023484;28;20427;-74
2021/03/25 09:41:02;;;;;;;10.17;5.53;;;;;;;;;;5032409;28;20907;-74
2021/03/25 09:43:28;;;;;;;21.63;6.87;;;;;;;;;;5028270;28;20421;-74
2021/03/25 09:45:58;;;;;;;16.23;7.37;;;;;;;;;;5043594;28;20408;-74
2021/03/25 09:48:29;;;;;;;8.50;5.30;;;;;;;;;;5033998;28;20418;-75
2021/03/25 09:51:02;;;;;;;11.80;7.73;;;;;;;;;;5034382;28;20759;-74
2021/03/25 09:53:28;;;;;;;8.87;4.30;;;;;;;;;;5044164;28;20450;-74
2021/03/25 09:56:01;;;;;;;12.97;5.03;;;;;;;;;;5052152;28;20422;-73
2021/03/25 09:58:56;;;;;;;13.13;6.00;;;;;;;;;;5055006;28;20457;-74
2021/03/25 10:01:41;;;;;;;11.80;5.47;;;;;;;;;;5023298;28;20415;-76
2021/03/25 10:04:26;;;;;;;12.10;7.40;;;;;;;;;;5056982;28;20387;-74
2021/03/25 10:06:55;;;;;;;8.53;5.20;;;;;;;;;;5057164;28;20510;-74
2021/03/25 10:09:40;;;;;;;11.90;6.00;;;;;;;;;;5040954;28;20498;-74
2021/03/25 10:12:10;;;;;;;7.97;5.90;;;;;;;;;;5037602;28;20790;-74
2021/03/25 10:14:44;;;;;;;15.90;5.13;;;;;;;;;;5055920;28;20399;-76
2021/03/25 10:17:30;;;;;;;195.50;177.83;;;;;;;;;;5058330;28;20443;-75
2021/03/25 10:19:56;;;;;;;890.87;822.47;;;;;;;;;;5055870;28;20482;-76
2021/03/25 10:22:22;;;;;;;759.60;696.77;;;;;;;;;;5053238;28;20940;-75
2021/03/25 10:24:52;;;;;;;713.43;656.63;;;;;;;;;;5056259;28;20468;-72
2021/03/25 10:27:25;;;;;;;819.13;757.93;;;;;;;;;;5028363;28;20447;-74
2021/03/25 10:29:51;;;;;;;878.93;805.73;;;;;;;;;;5054577;28;20929;-73
2021/03/25 10:32:24;;;;;;;792.30;726.30;;;;;;;;;;5045929;28;20445;-72
2021/03/25 10:34:53;;;;;;;897.73;826.10;;;;;;;;;;5045689;28;20411;-73
2021/03/25 10:37:34;;;;;;;789.40;723.40;;;;;;;;;;5037247;28;20439;-77
2021/03/25 10:40:19;;;;;;;844.97;773.13;;;;;;;;;;5038376;28;20387;-73
2021/03/25 10:42:53;;;;;;;618.33;565.23;;;;;;;;;;5050893;28;20480;-71
2021/03/25 10:45:34;;;;;;;118.87;102.57;;;;;;;;;;5055003;28;20402;-72
2021/03/25 10:48:28;;;;;;;164.17;152.23;;;;;;;;;;5029760;28;20443;-73
2021/03/25 10:50:59;;;;;;;569.50;536.90;;;;;;;;;;5001507;28;20507;-73
2021/03/25 10:53:30;;;;;;;1066.90;985.60;;;;;;;;;;5028124;28;20972;-73
2021/03/25 10:56:14;;;;;;;1095.77;999.47;;;;;;;;;;5031289;28;20414;-74
2021/03/25 10:58:42;;;;;;;1023.50;943.30;;;;;;;;;;5050108;28;20835;-73
2021/03/25 11:01:18;;;;;;;517.57;481.17;;;;;;;;;;5015131;28;20499;-75
2021/03/25 11:03:44;;;;;;;594.20;547.67;;;;;;;;;;5033124;28;20459;-74
2021/03/25 11:06:18;;;;;;;188.63;180.63;;;;;;;;;;5039280;28;20900;-72
2021/03/25 11:08:44;;;;;;;255.20;244.10;;;;;;;;;;5029626;28;20399;-74
2021/03/25 11:11:13;;;;;;;1094.63;999.90;;;;;;;;;;5031176;28;20403;-74
2021/03/25 11:13:40;;;;;;;1008.83;933.83;;;;;;;;;;5029471;28;20470;-72
2021/03/25 11:16:14;;;;;;;952.20;877.40;;;;;;;;;;5031664;28;20407;-73
2021/03/25 11:18:44;;;;;;;920.27;844.37;;;;;;;;;;5031940;28;20399;-72
2021/03/25 11:21:13;;;;;;;857.83;787.63;;;;;;;;;;5031313;28;20404;-72
2021/03/25 11:23:39;;;;;;;937.07;861.00;;;;;;;;;;5031283;28;20459;-71
2021/03/25 11:26:06;;;;;;;897.87;826.60;;;;;;;;;;5044463;28;20447;-71
2021/03/25 11:28:36;;;;;;;808.77;738.90;;;;;;;;;;4999289;28;21037;-71
2021/03/25 11:31:21;;;;;;;802.37;737.97;;;;;;;;;;5014737;28;20415;-72
2021/03/25 11:33:48;;;;;;;775.77;708.03;;;;;;;;;;5015553;28;20928;-72
2021/03/25 11:36:30;;;;;;;781.90;731.83;;;;;;;;;;5044179;28;20713;-71
2021/03/25 11:38:56;;;;;;;793.50;725.50;;;;;;;;;;5022931;28;20407;-71
2021/03/25 11:41:22;;;;;;;769.47;722.60;;;;;;;;;;5045728;28;20414;-71
2021/03/25 11:43:48;;;;;;;756.93;689.03;;;;;;;;;;5028783;28;20455;-71
2021/03/25 11:46:24;;;;;;;763.03;695.17;;;;;;;;;;5039075;28;20839;-71
2021/03/25 11:49:10;;;;;;;716.23;652.07;;;;;;;;;;5042997;28;20554;-73
2021/03/25 11:51:40;;;;;;;683.47;639.20;;;;;;;;;;5022417;28;20425;-73
2021/03/25 11:54:24;;;;;;;660.83;600.93;;;;;;;;;;5037948;28;20900;-74
2021/03/25 11:56:53;;;;;;;593.30;529.43;;;;;;;;;;5021474;28;552167;-74
2021/03/25 11:59:18;;;;;;;568.57;499.23;;;;;;;;;;5027113;28;20434;-75
2021/03/25 12:01:45;;;;;;;558.07;481.43;;;;;;;;;;5040087;28;20894;-75
2021/03/25 12:04:14;;;;;;;569.23;481.87;;;;;;;;;;5037640;28;20548;-74
2021/03/25 12:06:59;;;;;;;563.17;475.03;;;;;;;;;;5041668;28;20509;-74
2021/03/25 12:09:25;;;;;;;564.07;446.50;;;;;;;;;;5047229;28;20406;-74
2021/03/25 12:11:51;;;;;;;595.43;552.97;;;;;;;;;;5050379;28;20395;-74
2021/03/25 12:14:18;;;;;;;585.23;522.70;;;;;;;;;;5048699;28;20506;-74
2021/03/25 12:16:45;;;;;;;553.43;415.20;;;;;;;;;;5045585;28;20971;-73
2021/03/25 12:19:11;;;;;;;544.83;389.40;;;;;;;;;;5043328;28;20430;-73
2021/03/25 12:21:38;;;;;;;537.93;376.57;;;;;;;;;;5038442;28;20439;-75
2021/03/25 12:24:06;;;;;;;530.57;359.17;;;;;;;;;;5041537;28;20700;-75
2021/03/25 12:26:32;;;;;;;522.77;330.27;;;;;;;;;;5023667;28;20518;-74
2021/03/25 12:29:05;;;;;;;565.73;423.23;;;;;;;;;;5033108;28;20399;-74
2021/03/25 12:31:41;;;;;;;578.93;445.00;;;;;;;;;;5032254;28;20399;-74
2021/03/25 12:34:08;;;;;;;559.43;404.17;;;;;;;;;;5050802;28;20418;-74
2021/03/25 12:36:34;;;;;;;550.27;492.57;;;;;;;;;;5050852;28;20422;-74
2021/03/25 12:39:01;;;;;;;559.37;438.50;;;;;;;;;;5032889;28;20417;-74
2021/03/25 12:41:35;;;;;;;556.33;500.43;;;;;;;;;;5032778;28;20449;-74
2021/03/25 12:44:01;;;;;;;536.00;463.80;;;;;;;;;;5050480;28;20459;-74
2021/03/25 12:46:27;;;;;;;571.77;428.20;;;;;;;;;;5050446;28;20951;-74
2021/03/25 12:48:54;;;;;;;553.00;409.73;;;;;;;;;;5032846;28;20419;-74
2021/03/25 12:51:20;;;;;;;558.83;437.87;;;;;;;;;;5050406;28;20396;-74
2021/03/25 12:53:47;;;;;;;546.43;495.23;;;;;;;;;;5032555;28;20422;-73
2021/03/25 12:56:15;;;;;;;527.30;481.70;;;;;;;;;;5044516;28;20458;-74
2021/03/25 12:58:41;;;;;;;508.70;464.97;;;;;;;;;;5027894;28;20423;-73
2021/03/25 13:01:09;;;;;;;539.63;501.83;;;;;;;;;;5026963;28;20913;-72
2021/03/25 13:03:36;;;;;;;551.57;503.57;;;;;;;;;;5032340;28;20829;-74
2021/03/25 13:06:03;;;;;;;518.03;480.07;;;;;;;;;;5050445;28;20493;-73
2021/03/25 13:08:29;;;;;;;534.27;492.50;;;;;;;;;;5032666;28;20804;-74
2021/03/25 13:10:55;;;;;;;1.33;1.23;;;;;;;;;;5032113;28;20403;-73
2021/03/25 13:13:21;;;;;;;1.40;1.13;;;;;;;;;;5032233;28;20421;-73
2021/03/25 13:15:47;;;;;;;1.30;1.20;;;;;;;;;;5050348;28;21074;-73
2021/03/25 13:18:13;;;;;;;384.87;365.40;;;;;;;;;;5032258;28;20435;-74
2021/03/25 13:20:39;;;;;;;275.13;262.93;;;;;;;;;;5052420;28;20410;-74
2021/03/25 13:23:05;;;;;;;525.40;494.27;;;;;;;;;;5053893;28;20786;-74
2021/03/25 13:25:33;;;;;;;632.13;571.70;;;;;;;;;;5030803;28;20416;-74
2021/03/25 13:27:59;;;;;;;290.80;264.17;;;;;;;;;;5027762;28;20519;-75
2021/03/25 13:30:26;;;;;;;676.90;633.83;;;;;;;;;;5054091;28;20468;-75
2021/03/25 13:32:54;;;;;;;754.47;685.90;;;;;;;;;;5032732;28;20461;-74
2021/03/25 13:35:20;;;;;;;697.53;633.03;;;;;;;;;;5024940;28;20414;-74
2021/03/25 13:37:46;;;;;;;775.90;709.13;;;;;;;;;;5044244;28;20467;-74
2021/03/25 13:40:14;;;;;;;783.67;714.33;;;;;;;;;;5043399;28;20921;-73
2021/03/25 13:42:40;;;;;;;936.67;851.83;;;;;;;;;;5052924;28;20462;-73
2021/03/25 13:45:07;;;;;;;898.30;822.50;;;;;;;;;;5051554;28;20406;-73
2021/03/25 13:47:33;;;;;;;911.17;838.00;;;;;;;;;;4999847;28;20606;-73
2021/03/25 13:49:59;;;;;;;920.83;844.03;;;;;;;;;;5016381;28;20503;-73
2021/03/25 13:52:24;;;;;;;923.17;845.90;;;;;;;;;;5016051;28;20423;-73
2021/03/25 13:54:52;;;;;;;849.77;778.00;;;;;;;;;;5016033;28;20416;-74
2021/03/25 13:57:18;;;;;;;882.37;809.97;;;;;;;;;;5037069;22;20479;-70
2021/03/25 13:59:44;;;;;;;866.23;793.60;;;;;;;;;;5031077;28;20842;-70
2021/03/25 14:02:10;;;;;;;880.10;807.10;;;;;;;;;;5029364;28;20454;-70
2021/03/25 14:04:36;;;;;;;927.00;852.13;;;;;;;;;;5033580;28;20424;-71
2021/03/25 14:07:02;;;;;;;921.60;847.60;;;;;;;;;;5052267;28;20415;-70
2021/03/25 14:09:28;;;;;;;956.20;878.13;;;;;;;;;;5053024;28;20415;-71
2021/03/25 14:11:55;;;;;;;975.57;898.57;;;;;;;;;;5049605;28;20407;-71
2021/03/25 14:14:21;;;;;;;950.03;875.97;;;;;;;;;;5031495;28;20427;-69
2021/03/25 14:16:49;;;;;;;974.97;898.73;;;;;;;;;;5014918;28;20477;-70
2021/03/25 14:19:15;;;;;;;968.17;889.60;;;;;;;;;;5014937;28;20408;-71
2021/03/25 14:21:41;;;;;;;1000.13;915.83;;;;;;;;;;5032837;28;20444;-70
2021/03/25 14:24:07;;;;;;;938.87;861.10;;;;;;;;;;5013925;28;20817;-70
2021/03/25 14:26:33;;;;;;;831.20;760.20;;;;;;;;;;5033074;28;20408;-71
2021/03/25 14:29:02;;;;;;;896.00;825.07;;;;;;;;;;5033179;28;20415;-71
2021/03/25 14:31:29;;;;;;;831.13;773.80;;;;;;;;;;5031723;28;20893;-71
2021/03/25 14:33:58;;;;;;;901.30;826.30;;;;;;;;;;5032658;28;20436;-71
2021/03/25 14:36:24;;;;;;;740.33;696.77;;;;;;;;;;5033347;28;20482;-70
2021/03/25 14:38:50;;;;;;;97.70;90.17;;;;;;;;;;5033177;28;20461;-71
2021/03/25 14:41:16;;;;;;;890.30;820.13;;;;;;;;;;5032726;28;20400;-71
2021/03/25 14:43:42;;;;;;;885.57;815.47;;;;;;;;;;5032577;28;20456;-70
2021/03/25 14:46:08;;;;;;;815.40;752.50;;;;;;;;;;5031805;28;20903;-71
2021/03/25 14:48:34;;;;;;;783.03;713.20;;;;;;;;;;5032854;28;20403;-69